sensor_id;sensor_type;location;lat;lon;timestamp;pressure;altitude;pressure_sealevel;temperature;humidity
37778;BME280;23615;51.506;7.678;2023-04-30T00:00:28;100700.06;;;7.95;90.96
37778;BME280;23615;51.506;7.678;2023-04-30T00:02:53;100702.47;;;7.90;91.13
37778;BME280;23615;51.506;7.678;2023-04-30T00:05:19;100695.88;;;7.86;90.34
37778;BME280;23615;51.506;7.678;2023-04-30T00:07:44;100693.00;;;7.81;90.29
37778;BME280;23615;51.506;7.678;2023-04-30T00:10:10;100691.91;;;7.75;90.51
37778;BME280;23615;51.506;7.678;2023-04-30T00:12:35;100695.56;;;7.74;90.57
37778;BME280;23615;51.506;7.678;2023-04-30T00:15:01;100698.44;;;7.73;89.96
37778;BME280;23615;51.506;7.678;2023-04-30T00:17:27;100695.88;;;7.65;90.75
37778;BME280;23615;51.506;7.678;2023-04-30T00:19:52;100688.72;;;7.65;90.13
37778;BME280;23615;51.506;7.678;2023-04-30T00:22:18;100699.47;;;7.57;89.59
37778;BME280;23615;51.506;7.678;2023-04-30T00:24:43;100701.09;;;7.37;90.15
37778;BME280;23615;51.506;7.678;2023-04-30T00:27:08;100704.09;;;7.34;90.97
37778;BME280;23615;51.506;7.678;2023-04-30T00:29:34;100698.78;;;7.34;91.43
37778;BME280;23615;51.506;7.678;2023-04-30T00:31:59;100701.44;;;7.34;91.12
37778;BME280;23615;51.506;7.678;2023-04-30T00:34:24;100701.97;;;7.29;91.21
37778;BME280;23615;51.506;7.678;2023-04-30T00:36:49;100715.00;;;7.24;90.60
37778;BME280;23615;51.506;7.678;2023-04-30T00:39:15;100712.88;;;7.20;90.88
37778;BME280;23615;51.506;7.678;2023-04-30T00:41:41;100703.47;;;7.17;90.99
37778;BME280;23615;51.506;7.678;2023-04-30T00:44:06;100707.56;;;7.20;90.93
37778;BME280;23615;51.506;7.678;2023-04-30T00:46:32;100708.63;;;7.19;90.71
37778;BME280;23615;51.506;7.678;2023-04-30T00:48:57;100711.16;;;7.12;91.06
37778;BME280;23615;51.506;7.678;2023-04-30T00:51:24;100708.91;;;7.09;90.76
37778;BME280;23615;51.506;7.678;2023-04-30T00:53:50;100708.78;;;7.02;90.90
37778;BME280;23615;51.506;7.678;2023-04-30T00:56:16;100705.69;;;6.99;90.18
37778;BME280;23615;51.506;7.678;2023-04-30T00:58:41;100704.78;;;6.92;90.19
37778;BME280;23615;51.506;7.678;2023-04-30T01:01:07;100703.66;;;6.86;90.51
37778;BME280;23615;51.506;7.678;2023-04-30T01:03:32;100708.06;;;6.79;90.23
37778;BME280;23615;51.506;7.678;2023-04-30T01:06:00;100702.47;;;6.74;90.62
37778;BME280;23615;51.506;7.678;2023-04-30T01:08:25;100702.47;;;6.74;90.84
37778;BME280;23615;51.506;7.678;2023-04-30T01:10:55;100704.75;;;6.77;90.60
37778;BME280;23615;51.506;7.678;2023-04-30T01:13:38;100696.88;;;6.69;90.65
37778;BME280;23615;51.506;7.678;2023-04-30T01:16:14;100702.53;;;6.66;89.93
37778;BME280;23615;51.506;7.678;2023-04-30T01:18:48;100700.16;;;6.56;90.30
37778;BME280;23615;51.506;7.678;2023-04-30T01:21:16;100702.88;;;6.48;90.83
37778;BME280;23615;51.506;7.678;2023-04-30T01:24:05;100699.16;;;6.43;90.83
37778;BME280;23615;51.506;7.678;2023-04-30T01:26:59;100701.50;;;6.37;90.94
37778;BME280;23615;51.506;7.678;2023-04-30T01:29:29;100699.56;;;6.31;91.28
37778;BME280;23615;51.506;7.678;2023-04-30T01:31:54;100693.44;;;6.31;91.82
37778;BME280;23615;51.506;7.678;2023-04-30T01:34:20;100695.91;;;6.32;91.71
37778;BME280;23615;51.506;7.678;2023-04-30T01:39:28;100705.53;;;6.33;91.10
37778;BME280;23615;51.506;7.678;2023-04-30T01:42:04;100705.03;;;6.30;91.39
37778;BME280;23615;51.506;7.678;2023-04-30T01:47:29;100716.94;;;6.34;91.77
37778;BME280;23615;51.506;7.678;2023-04-30T01:50:19;100707.88;;;6.28;91.28
37778;BME280;23615;51.506;7.678;2023-04-30T01:52:53;100712.72;;;6.25;90.65
37778;BME280;23615;51.506;7.678;2023-04-30T01:55:36;100707.50;;;6.17;90.76
37778;BME280;23615;51.506;7.678;2023-04-30T01:58:08;100715.31;;;6.10;91.38
37778;BME280;23615;51.506;7.678;2023-04-30T02:00:34;100714.84;;;6.07;91.18
37778;BME280;23615;51.506;7.678;2023-04-30T02:02:59;100715.69;;;6.07;91.48
37778;BME280;23615;51.506;7.678;2023-04-30T02:05:25;100720.44;;;6.12;91.56
37778;BME280;23615;51.506;7.678;2023-04-30T02:07:51;100711.72;;;6.03;91.16
37778;BME280;23615;51.506;7.678;2023-04-30T02:10:19;100713.09;;;5.99;91.32
37778;BME280;23615;51.506;7.678;2023-04-30T02:12:45;100720.38;;;5.97;91.10
37778;BME280;23615;51.506;7.678;2023-04-30T02:15:11;100718.06;;;5.94;91.42
37778;BME280;23615;51.506;7.678;2023-04-30T02:17:36;100715.81;;;5.91;91.38
37778;BME280;23615;51.506;7.678;2023-04-30T02:20:02;100717.06;;;5.95;91.70
37778;BME280;23615;51.506;7.678;2023-04-30T02:22:27;100718.09;;;5.86;91.50
37778;BME280;23615;51.506;7.678;2023-04-30T02:24:52;100720.75;;;5.86;91.69
37778;BME280;23615;51.506;7.678;2023-04-30T02:27:20;100732.16;;;5.86;91.02
37778;BME280;23615;51.506;7.678;2023-04-30T02:29:46;100730.41;;;5.79;91.05
37778;BME280;23615;51.506;7.678;2023-04-30T02:32:11;100726.16;;;5.70;91.51
37778;BME280;23615;51.506;7.678;2023-04-30T02:34:37;100722.84;;;5.68;91.33
37778;BME280;23615;51.506;7.678;2023-04-30T02:37:02;100733.44;;;5.68;91.43
37778;BME280;23615;51.506;7.678;2023-04-30T02:39:27;100727.69;;;5.64;91.54
37778;BME280;23615;51.506;7.678;2023-04-30T02:41:53;100718.59;;;5.58;91.63
37778;BME280;23615;51.506;7.678;2023-04-30T02:44:18;100728.19;;;5.59;91.90
37778;BME280;23615;51.506;7.678;2023-04-30T02:46:43;100718.31;;;5.53;91.57
37778;BME280;23615;51.506;7.678;2023-04-30T02:49:09;100728.06;;;5.53;91.71
37778;BME280;23615;51.506;7.678;2023-04-30T02:51:34;100726.59;;;5.50;91.43
37778;BME280;23615;51.506;7.678;2023-04-30T02:53:59;100722.81;;;5.45;91.50
37778;BME280;23615;51.506;7.678;2023-04-30T02:56:24;100722.66;;;5.38;92.27
37778;BME280;23615;51.506;7.678;2023-04-30T02:58:50;100724.97;;;5.41;91.97
37778;BME280;23615;51.506;7.678;2023-04-30T03:01:16;100723.16;;;5.42;92.36
37778;BME280;23615;51.506;7.678;2023-04-30T03:03:41;100719.03;;;5.39;91.93
37778;BME280;23615;51.506;7.678;2023-04-30T03:06:06;100727.66;;;5.33;92.13
37778;BME280;23615;51.506;7.678;2023-04-30T03:08:31;100723.31;;;5.40;91.60
37778;BME280;23615;51.506;7.678;2023-04-30T03:10:57;100725.50;;;5.37;90.82
37778;BME280;23615;51.506;7.678;2023-04-30T03:13:23;100724.69;;;5.28;91.23
37778;BME280;23615;51.506;7.678;2023-04-30T03:15:57;100730.69;;;5.22;91.20
37778;BME280;23615;51.506;7.678;2023-04-30T03:18:23;100725.09;;;5.17;91.43
37778;BME280;23615;51.506;7.678;2023-04-30T03:20:49;100718.84;;;5.10;91.43
37778;BME280;23615;51.506;7.678;2023-04-30T03:23:14;100720.16;;;5.06;91.89
37778;BME280;23615;51.506;7.678;2023-04-30T03:25:39;100715.38;;;5.01;91.97
37778;BME280;23615;51.506;7.678;2023-04-30T03:28:05;100718.22;;;5.00;91.84
37778;BME280;23615;51.506;7.678;2023-04-30T03:30:30;100712.72;;;5.01;92.60
37778;BME280;23615;51.506;7.678;2023-04-30T03:32:55;100722.50;;;5.01;92.46
37778;BME280;23615;51.506;7.678;2023-04-30T03:35:21;100721.69;;;5.00;92.80
37778;BME280;23615;51.506;7.678;2023-04-30T03:37:46;100726.59;;;5.03;92.33
37778;BME280;23615;51.506;7.678;2023-04-30T03:40:11;100728.25;;;5.04;91.81
37778;BME280;23615;51.506;7.678;2023-04-30T03:42:37;100727.13;;;4.99;92.49
37778;BME280;23615;51.506;7.678;2023-04-30T03:45:03;100724.81;;;4.96;92.16
37778;BME280;23615;51.506;7.678;2023-04-30T03:47:28;100713.75;;;5.00;91.91
37778;BME280;23615;51.506;7.678;2023-04-30T03:49:53;100716.38;;;4.92;92.37
37778;BME280;23615;51.506;7.678;2023-04-30T03:52:19;100717.22;;;4.93;92.01
37778;BME280;23615;51.506;7.678;2023-04-30T03:54:45;100711.63;;;4.87;92.38
37778;BME280;23615;51.506;7.678;2023-04-30T03:57:10;100712.13;;;4.83;91.83
37778;BME280;23615;51.506;7.678;2023-04-30T03:59:38;100712.31;;;4.81;92.54
37778;BME280;23615;51.506;7.678;2023-04-30T04:02:04;100719.06;;;4.84;92.93
37778;BME280;23615;51.506;7.678;2023-04-30T04:04:30;100719.56;;;4.87;92.98
37778;BME280;23615;51.506;7.678;2023-04-30T04:06:55;100722.50;;;4.93;92.84
37778;BME280;23615;51.506;7.678;2023-04-30T04:09:21;100729.16;;;4.88;92.89
37778;BME280;23615;51.506;7.678;2023-04-30T04:11:46;100729.16;;;4.80;92.54
37778;BME280;23615;51.506;7.678;2023-04-30T04:14:12;100720.25;;;4.81;92.63
37778;BME280;23615;51.506;7.678;2023-04-30T04:16:37;100721.91;;;4.82;92.91
37778;BME280;23615;51.506;7.678;2023-04-30T04:19:02;100726.84;;;4.77;92.37
37778;BME280;23615;51.506;7.678;2023-04-30T04:21:28;100731.50;;;4.67;92.98
37778;BME280;23615;51.506;7.678;2023-04-30T04:23:53;100729.53;;;4.61;93.07
37778;BME280;23615;51.506;7.678;2023-04-30T04:26:19;100736.63;;;4.61;93.60
37778;BME280;23615;51.506;7.678;2023-04-30T04:28:45;100740.91;;;4.70;93.95
37778;BME280;23615;51.506;7.678;2023-04-30T04:31:12;100738.09;;;4.79;94.90
37778;BME280;23615;51.506;7.678;2023-04-30T04:33:37;100751.44;;;4.86;95.45
37778;BME280;23615;51.506;7.678;2023-04-30T04:36:02;100743.00;;;4.99;95.63
37778;BME280;23615;51.506;7.678;2023-04-30T04:38:28;100744.00;;;4.98;94.95
37778;BME280;23615;51.506;7.678;2023-04-30T04:40:53;100740.53;;;4.89;95.22
37778;BME280;23615;51.506;7.678;2023-04-30T04:43:19;100741.41;;;4.81;95.12
37778;BME280;23615;51.506;7.678;2023-04-30T04:45:45;100739.91;;;4.79;95.50
37778;BME280;23615;51.506;7.678;2023-04-30T04:48:11;100748.00;;;4.77;95.26
37778;BME280;23615;51.506;7.678;2023-04-30T04:50:37;100751.31;;;4.79;95.71
37778;BME280;23615;51.506;7.678;2023-04-30T04:53:02;100753.09;;;4.87;96.54
37778;BME280;23615;51.506;7.678;2023-04-30T04:55:27;100745.31;;;4.94;97.38
37778;BME280;23615;51.506;7.678;2023-04-30T04:57:53;100752.56;;;5.08;97.98
37778;BME280;23615;51.506;7.678;2023-04-30T05:00:18;100748.91;;;5.17;98.19
37778;BME280;23615;51.506;7.678;2023-04-30T05:02:46;100757.09;;;5.30;99.15
37778;BME280;23615;51.506;7.678;2023-04-30T05:05:11;100756.72;;;5.41;99.27
37778;BME280;23615;51.506;7.678;2023-04-30T05:07:36;100765.47;;;5.50;99.98
37778;BME280;23615;51.506;7.678;2023-04-30T05:10:01;100753.19;;;5.57;99.84
37778;BME280;23615;51.506;7.678;2023-04-30T05:12:27;100754.63;;;5.68;100.00
37778;BME280;23615;51.506;7.678;2023-04-30T05:14:52;100759.41;;;5.72;100.00
37778;BME280;23615;51.506;7.678;2023-04-30T05:17:17;100755.88;;;5.80;100.00
37778;BME280;23615;51.506;7.678;2023-04-30T05:19:43;100758.16;;;5.83;100.00
37778;BME280;23615;51.506;7.678;2023-04-30T05:22:08;100759.16;;;5.90;100.00
37778;BME280;23615;51.506;7.678;2023-04-30T05:24:33;100752.81;;;5.99;100.00
37778;BME280;23615;51.506;7.678;2023-04-30T05:26:59;100755.56;;;6.06;100.00
37778;BME280;23615;51.506;7.678;2023-04-30T05:29:24;100753.22;;;6.11;100.00
37778;BME280;23615;51.506;7.678;2023-04-30T05:31:49;100757.75;;;6.25;100.00
37778;BME280;23615;51.506;7.678;2023-04-30T05:34:15;100745.78;;;6.29;100.00
37778;BME280;23615;51.506;7.678;2023-04-30T05:36:40;100757.44;;;6.43;100.00
37778;BME280;23615;51.506;7.678;2023-04-30T05:39:05;100757.72;;;6.48;100.00
37778;BME280;23615;51.506;7.678;2023-04-30T05:41:31;100761.03;;;6.50;100.00
37778;BME280;23615;51.506;7.678;2023-04-30T05:43:56;100765.59;;;6.56;100.00
37778;BME280;23615;51.506;7.678;2023-04-30T05:46:21;100770.38;;;6.60;100.00
37778;BME280;23615;51.506;7.678;2023-04-30T05:48:46;100769.66;;;6.66;100.00
37778;BME280;23615;51.506;7.678;2023-04-30T05:51:12;100768.75;;;6.74;100.00
37778;BME280;23615;51.506;7.678;2023-04-30T05:53:37;100773.53;;;6.79;100.00
37778;BME280;23615;51.506;7.678;2023-04-30T05:56:03;100775.38;;;6.93;100.00
37778;BME280;23615;51.506;7.678;2023-04-30T05:58:28;100776.94;;;7.02;100.00
37778;BME280;23615;51.506;7.678;2023-04-30T06:00:53;100783.34;;;7.07;100.00
37778;BME280;23615;51.506;7.678;2023-04-30T06:03:19;100785.63;;;7.10;100.00
37778;BME280;23615;51.506;7.678;2023-04-30T06:05:45;100783.91;;;7.18;100.00
37778;BME280;23615;51.506;7.678;2023-04-30T06:08:11;100779.16;;;7.28;100.00
37778;BME280;23615;51.506;7.678;2023-04-30T06:10:36;100772.28;;;7.33;100.00
37778;BME280;23615;51.506;7.678;2023-04-30T06:13:02;100781.97;;;7.41;100.00
37778;BME280;23615;51.506;7.678;2023-04-30T06:15:28;100777.41;;;7.49;100.00
37778;BME280;23615;51.506;7.678;2023-04-30T06:17:53;100782.69;;;7.49;100.00
37778;BME280;23615;51.506;7.678;2023-04-30T06:20:18;100782.41;;;7.59;100.00
37778;BME280;23615;51.506;7.678;2023-04-30T06:22:44;100778.81;;;7.67;100.00
37778;BME280;23615;51.506;7.678;2023-04-30T06:25:09;100776.53;;;7.78;100.00
37778;BME280;23615;51.506;7.678;2023-04-30T06:27:34;100786.78;;;7.81;100.00
37778;BME280;23615;51.506;7.678;2023-04-30T06:30:00;100783.56;;;7.86;100.00
37778;BME280;23615;51.506;7.678;2023-04-30T06:32:25;100772.56;;;7.89;100.00
37778;BME280;23615;51.506;7.678;2023-04-30T06:34:51;100782.44;;;7.95;100.00
37778;BME280;23615;51.506;7.678;2023-04-30T06:37:16;100783.25;;;7.96;100.00
37778;BME280;23615;51.506;7.678;2023-04-30T06:39:42;100782.88;;;7.99;100.00
37778;BME280;23615;51.506;7.678;2023-04-30T06:42:08;100778.81;;;8.03;100.00
37778;BME280;23615;51.506;7.678;2023-04-30T06:44:33;100780.53;;;8.10;100.00
37778;BME280;23615;51.506;7.678;2023-04-30T06:46:58;100777.69;;;8.12;100.00
37778;BME280;23615;51.506;7.678;2023-04-30T06:49:24;100767.91;;;8.12;100.00
37778;BME280;23615;51.506;7.678;2023-04-30T06:51:49;100774.31;;;8.18;100.00
37778;BME280;23615;51.506;7.678;2023-04-30T06:54:15;100772.91;;;8.22;100.00
37778;BME280;23615;51.506;7.678;2023-04-30T06:56:40;100767.84;;;8.27;100.00
37778;BME280;23615;51.506;7.678;2023-04-30T06:59:05;100773.94;;;8.42;100.00
37778;BME280;23615;51.506;7.678;2023-04-30T07:01:30;100766.84;;;8.49;100.00
37778;BME280;23615;51.506;7.678;2023-04-30T07:03:56;100768.34;;;8.58;100.00
37778;BME280;23615;51.506;7.678;2023-04-30T07:06:21;100772.91;;;8.65;100.00
37778;BME280;23615;51.506;7.678;2023-04-30T07:08:46;100774.22;;;8.75;100.00
37778;BME280;23615;51.506;7.678;2023-04-30T07:11:12;100770.97;;;8.80;100.00
37778;BME280;23615;51.506;7.678;2023-04-30T07:13:38;100769.78;;;8.82;100.00
37778;BME280;23615;51.506;7.678;2023-04-30T07:16:04;100769.56;;;8.84;100.00
37778;BME280;23615;51.506;7.678;2023-04-30T07:18:29;100775.72;;;8.84;100.00
37778;BME280;23615;51.506;7.678;2023-04-30T07:20:55;100768.38;;;8.86;100.00
37778;BME280;23615;51.506;7.678;2023-04-30T07:23:20;100774.78;;;8.92;99.76
37778;BME280;23615;51.506;7.678;2023-04-30T07:25:46;100774.81;;;8.98;99.51
37778;BME280;23615;51.506;7.678;2023-04-30T07:28:11;100774.03;;;9.11;99.57
37778;BME280;23615;51.506;7.678;2023-04-30T07:30:36;100765.94;;;9.19;99.45
37778;BME280;23615;51.506;7.678;2023-04-30T07:33:01;100778.44;;;9.25;99.53
37778;BME280;23615;51.506;7.678;2023-04-30T07:35:27;100773.75;;;9.27;99.21
37778;BME280;23615;51.506;7.678;2023-04-30T07:37:52;100771.31;;;9.32;99.49
37778;BME280;23615;51.506;7.678;2023-04-30T07:40:17;100777.28;;;9.41;98.68
37778;BME280;23615;51.506;7.678;2023-04-30T07:42:42;100769.31;;;9.41;99.31
37778;BME280;23615;51.506;7.678;2023-04-30T07:45:09;100773.88;;;9.54;99.01
37778;BME280;23615;51.506;7.678;2023-04-30T07:47:35;100771.44;;;9.59;98.56
37778;BME280;23615;51.506;7.678;2023-04-30T07:50:00;100773.72;;;9.62;98.69
37778;BME280;23615;51.506;7.678;2023-04-30T07:52:25;100770.41;;;9.60;97.88
37778;BME280;23615;51.506;7.678;2023-04-30T07:54:50;100769.41;;;9.67;97.34
37778;BME280;23615;51.506;7.678;2023-04-30T07:57:16;100766.56;;;9.69;96.89
37778;BME280;23615;51.506;7.678;2023-04-30T07:59:41;100773.56;;;9.76;96.70
37778;BME280;23615;51.506;7.678;2023-04-30T08:02:07;100770.75;;;9.91;96.18
37778;BME280;23615;51.506;7.678;2023-04-30T08:04:33;100772.81;;;10.02;97.14
37778;BME280;23615;51.506;7.678;2023-04-30T08:06:58;100773.03;;;10.14;96.86
37778;BME280;23615;51.506;7.678;2023-04-30T08:09:23;100773.72;;;10.23;96.96
37778;BME280;23615;51.506;7.678;2023-04-30T08:11:49;100775.75;;;10.21;97.06
37778;BME280;23615;51.506;7.678;2023-04-30T08:14:14;100783.34;;;10.30;96.59
37778;BME280;23615;51.506;7.678;2023-04-30T08:16:39;100779.88;;;10.30;96.37
37778;BME280;23615;51.506;7.678;2023-04-30T08:19:05;100783.78;;;10.34;95.41
37778;BME280;23615;51.506;7.678;2023-04-30T08:21:30;100784.41;;;10.42;95.02
37778;BME280;23615;51.506;7.678;2023-04-30T08:23:56;100780.28;;;10.40;94.46
37778;BME280;23615;51.506;7.678;2023-04-30T08:26:21;100776.59;;;10.47;94.27
37778;BME280;23615;51.506;7.678;2023-04-30T08:28:47;100772.91;;;10.42;93.48
37778;BME280;23615;51.506;7.678;2023-04-30T08:31:12;100774.75;;;10.41;93.61
37778;BME280;23615;51.506;7.678;2023-04-30T08:33:38;100775.19;;;10.45;93.10
37778;BME280;23615;51.506;7.678;2023-04-30T08:36:05;100770.88;;;10.57;93.10
37778;BME280;23615;51.506;7.678;2023-04-30T08:38:30;100773.75;;;10.56;92.94
37778;BME280;23615;51.506;7.678;2023-04-30T08:41:04;100778.06;;;10.63;92.01
37778;BME280;23615;51.506;7.678;2023-04-30T08:43:33;100773.34;;;10.72;92.53
37778;BME280;23615;51.506;7.678;2023-04-30T08:46:02;100781.13;;;10.80;92.81
37778;BME280;23615;51.506;7.678;2023-04-30T08:48:28;100777.22;;;10.89;92.67
37778;BME280;23615;51.506;7.678;2023-04-30T08:50:54;100776.81;;;10.92;92.48
37778;BME280;23615;51.506;7.678;2023-04-30T08:53:20;100782.16;;;10.99;91.74
37778;BME280;23615;51.506;7.678;2023-04-30T08:58:22;100787.47;;;11.12;90.84
37778;BME280;23615;51.506;7.678;2023-04-30T09:00:47;100788.69;;;11.16;89.72
37778;BME280;23615;51.506;7.678;2023-04-30T09:03:13;100783.16;;;11.17;88.62
37778;BME280;23615;51.506;7.678;2023-04-30T09:05:38;100783.75;;;11.19;88.12
37778;BME280;23615;51.506;7.678;2023-04-30T09:08:05;100791.78;;;11.19;88.29
37778;BME280;23615;51.506;7.678;2023-04-30T09:10:32;100785.56;;;11.32;87.87
37778;BME280;23615;51.506;7.678;2023-04-30T09:13:04;100790.88;;;11.39;87.87
37778;BME280;23615;51.506;7.678;2023-04-30T09:15:31;100782.25;;;11.43;87.95
37778;BME280;23615;51.506;7.678;2023-04-30T09:18:17;100777.66;;;11.57;87.64
37778;BME280;23615;51.506;7.678;2023-04-30T09:23:23;100776.84;;;11.63;87.67
37778;BME280;23615;51.506;7.678;2023-04-30T09:25:49;100789.56;;;11.74;87.57
37778;BME280;23615;51.506;7.678;2023-04-30T09:28:14;100778.81;;;11.87;87.17
37778;BME280;23615;51.506;7.678;2023-04-30T09:30:41;100784.56;;;11.84;85.89
37778;BME280;23615;51.506;7.678;2023-04-30T09:33:07;100775.06;;;11.95;86.33
37778;BME280;23615;51.506;7.678;2023-04-30T09:35:37;100773.00;;;11.97;86.17
37778;BME280;23615;51.506;7.678;2023-04-30T09:38:03;100764.97;;;11.97;86.45
37778;BME280;23615;51.506;7.678;2023-04-30T09:40:34;100760.88;;;12.01;85.58
37778;BME280;23615;51.506;7.678;2023-04-30T09:43:01;100755.19;;;12.16;84.87
37778;BME280;23615;51.506;7.678;2023-04-30T09:45:26;100757.81;;;12.22;84.42
37778;BME280;23615;51.506;7.678;2023-04-30T09:47:51;100763.53;;;12.32;84.22
37778;BME280;23615;51.506;7.678;2023-04-30T09:50:17;100768.81;;;12.39;83.98
37778;BME280;23615;51.506;7.678;2023-04-30T09:52:51;100770.25;;;12.42;83.96
37778;BME280;23615;51.506;7.678;2023-04-30T09:55:18;100768.94;;;12.51;83.12
37778;BME280;23615;51.506;7.678;2023-04-30T09:57:44;100761.53;;;12.53;83.13
37778;BME280;23615;51.506;7.678;2023-04-30T10:00:12;100757.47;;;12.68;82.51
37778;BME280;23615;51.506;7.678;2023-04-30T10:02:38;100752.22;;;12.80;82.52
37778;BME280;23615;51.506;7.678;2023-04-30T10:05:05;100763.69;;;12.87;82.02
37778;BME280;23615;51.506;7.678;2023-04-30T10:07:33;100753.81;;;12.88;80.21
37778;BME280;23615;51.506;7.678;2023-04-30T10:10:09;100749.16;;;13.01;80.77
37778;BME280;23615;51.506;7.678;2023-04-30T10:12:42;100747.00;;;13.10;80.72
37778;BME280;23615;51.506;7.678;2023-04-30T10:15:15;100735.81;;;13.20;80.98
37778;BME280;23615;51.506;7.678;2023-04-30T10:17:46;100736.91;;;13.30;80.79
37778;BME280;23615;51.506;7.678;2023-04-30T10:20:15;100743.06;;;13.31;80.91
37778;BME280;23615;51.506;7.678;2023-04-30T10:22:41;100739.66;;;13.42;81.03
37778;BME280;23615;51.506;7.678;2023-04-30T10:25:08;100739.44;;;13.43;80.12
37778;BME280;23615;51.506;7.678;2023-04-30T10:27:38;100733.09;;;13.56;80.19
37778;BME280;23615;51.506;7.678;2023-04-30T10:30:04;100733.22;;;13.61;79.74
37778;BME280;23615;51.506;7.678;2023-04-30T10:32:37;100741.13;;;13.74;80.47
37778;BME280;23615;51.506;7.678;2023-04-30T10:35:14;100734.84;;;13.80;79.55
37778;BME280;23615;51.506;7.678;2023-04-30T10:37:53;100725.41;;;13.90;79.33
37778;BME280;23615;51.506;7.678;2023-04-30T10:40:19;100722.19;;;13.99;79.36
37778;BME280;23615;51.506;7.678;2023-04-30T10:42:48;100722.91;;;14.06;78.14
37778;BME280;23615;51.506;7.678;2023-04-30T10:45:17;100721.75;;;14.14;77.46
37778;BME280;23615;51.506;7.678;2023-04-30T10:47:44;100717.44;;;14.13;75.95
37778;BME280;23615;51.506;7.678;2023-04-30T10:50:10;100721.19;;;14.23;76.40
37778;BME280;23615;51.506;7.678;2023-04-30T10:52:37;100711.41;;;14.29;77.29
37778;BME280;23615;51.506;7.678;2023-04-30T10:55:06;100714.38;;;14.51;78.20
37778;BME280;23615;51.506;7.678;2023-04-30T10:57:40;100706.94;;;14.65;77.76
37778;BME280;23615;51.506;7.678;2023-04-30T11:02:44;100702.38;;;14.53;77.83
37778;BME280;23615;51.506;7.678;2023-04-30T11:05:15;100702.81;;;14.50;76.41
37778;BME280;23615;51.506;7.678;2023-04-30T11:07:57;100702.25;;;14.72;76.36
37778;BME280;23615;51.506;7.678;2023-04-30T11:10:31;100697.94;;;14.71;76.59
37778;BME280;23615;51.506;7.678;2023-04-30T11:13:02;100690.34;;;14.56;76.42
37778;BME280;23615;51.506;7.678;2023-04-30T11:15:39;100697.47;;;14.74;76.95
37778;BME280;23615;51.506;7.678;2023-04-30T11:18:06;100692.56;;;14.82;77.17
37778;BME280;23615;51.506;7.678;2023-04-30T11:20:32;100691.03;;;14.98;78.27
37778;BME280;23615;51.506;7.678;2023-04-30T11:23:16;100684.47;;;15.06;77.11
37778;BME280;23615;51.506;7.678;2023-04-30T11:25:46;100687.22;;;15.22;77.01
37778;BME280;23615;51.506;7.678;2023-04-30T11:28:20;100682.16;;;15.38;76.51
37778;BME280;23615;51.506;7.678;2023-04-30T11:33:18;100677.47;;;15.45;75.07
37778;BME280;23615;51.506;7.678;2023-04-30T11:35:44;100681.22;;;15.55;75.08
37778;BME280;23615;51.506;7.678;2023-04-30T11:38:11;100671.13;;;15.51;73.56
37778;BME280;23615;51.506;7.678;2023-04-30T11:40:37;100673.59;;;15.41;74.13
37778;BME280;23615;51.506;7.678;2023-04-30T11:43:02;100674.66;;;15.40;74.44
37778;BME280;23615;51.506;7.678;2023-04-30T11:45:28;100669.41;;;15.45;72.97
37778;BME280;23615;51.506;7.678;2023-04-30T11:47:56;100670.44;;;15.44;72.73
37778;BME280;23615;51.506;7.678;2023-04-30T11:50:23;100665.75;;;15.51;72.55
37778;BME280;23615;51.506;7.678;2023-04-30T11:52:54;100661.47;;;15.38;72.72
37778;BME280;23615;51.506;7.678;2023-04-30T11:55:22;100652.75;;;15.59;73.39
37778;BME280;23615;51.506;7.678;2023-04-30T11:57:49;100654.22;;;15.67;73.78
37778;BME280;23615;51.506;7.678;2023-04-30T12:00:19;100655.59;;;15.81;73.00
37778;BME280;23615;51.506;7.678;2023-04-30T12:02:47;100653.19;;;15.85;72.06
37778;BME280;23615;51.506;7.678;2023-04-30T12:05:13;100654.44;;;15.94;71.79
37778;BME280;23615;51.506;7.678;2023-04-30T12:07:50;100655.00;;;15.96;71.80
37778;BME280;23615;51.506;7.678;2023-04-30T12:10:19;100649.00;;;16.05;72.43
37778;BME280;23615;51.506;7.678;2023-04-30T12:12:46;100653.97;;;16.14;72.19
37778;BME280;23615;51.506;7.678;2023-04-30T12:15:17;100647.34;;;16.04;72.05
37778;BME280;23615;51.506;7.678;2023-04-30T12:17:45;100639.22;;;16.16;71.97
37778;BME280;23615;51.506;7.678;2023-04-30T12:20:11;100650.88;;;16.05;72.75
37778;BME280;23615;51.506;7.678;2023-04-30T12:22:37;100640.19;;;16.10;71.78
37778;BME280;23615;51.506;7.678;2023-04-30T12:25:07;100641.31;;;16.14;71.81
37778;BME280;23615;51.506;7.678;2023-04-30T12:27:34;100630.06;;;16.17;71.32
37778;BME280;23615;51.506;7.678;2023-04-30T12:30:02;100635.38;;;16.29;71.42
37778;BME280;23615;51.506;7.678;2023-04-30T12:32:28;100633.81;;;16.33;70.28
37778;BME280;23615;51.506;7.678;2023-04-30T12:34:57;100636.28;;;16.18;70.88
37778;BME280;23615;51.506;7.678;2023-04-30T12:37:25;100632.59;;;16.07;69.82
37778;BME280;23615;51.506;7.678;2023-04-30T12:39:50;100637.81;;;16.14;69.81
37778;BME280;23615;51.506;7.678;2023-04-30T12:42:17;100632.09;;;16.27;69.19
37778;BME280;23615;51.506;7.678;2023-04-30T12:44:44;100633.31;;;16.36;68.22
37778;BME280;23615;51.506;7.678;2023-04-30T12:47:09;100621.16;;;16.33;68.16
37778;BME280;23615;51.506;7.678;2023-04-30T12:49:35;100625.72;;;16.33;68.73
37778;BME280;23615;51.506;7.678;2023-04-30T12:52:08;100617.38;;;16.51;69.81
37778;BME280;23615;51.506;7.678;2023-04-30T12:54:35;100625.47;;;16.51;67.73
37778;BME280;23615;51.506;7.678;2023-04-30T12:57:01;100625.78;;;16.55;67.22
37778;BME280;23615;51.506;7.678;2023-04-30T12:59:28;100625.16;;;16.64;66.81
37778;BME280;23615;51.506;7.678;2023-04-30T13:01:53;100604.72;;;16.68;67.08
37778;BME280;23615;51.506;7.678;2023-04-30T13:04:19;100613.56;;;16.86;68.85
37778;BME280;23615;51.506;7.678;2023-04-30T13:06:45;100604.84;;;16.78;67.96
37778;BME280;23615;51.506;7.678;2023-04-30T13:09:10;100604.66;;;16.85;67.34